< < Back
Terminal Aerodrome Forecast


Current Version              Previous Versions:   1  2  3  4  5  6  7  8  9  

Terminal Aerodrome Forecast

719
FTUS44 KMOB 201700 RRA
TAFPNS
TAF
KPNS 201746Z 2018/2118 VRB03KT P6SM FEW025
     FM202100 13007KT P6SM SCT250
     FM210900 00000KT P6SM BKN250
     FM211500 07006KT P6SM SKC=



Latest METAR

269
SAUS70 KWBC 211900 RRI
MTRPNS
METAR KPNS 211853Z 10007KT 10SM CLR 20/07 A3028 RMK AO2 SLP255
T02000067


USA.gov is the U.S. government's official web portal to all federal, state and local government web resources and services.